Terminal Aerodrome Forecast
Issued by NWS Albany, NY

Home | Current Version | Previous Version | Text Only | Print | Product List | Glossary On
Versions: 1 2 3 4 5 6 7 8 9 10 11 12 13 14 15 16
000
FTUS41 KALY 250540
TAFGFL
TAF
KGFL 250540Z 2506/2606 00000KT P6SM SCT120 BKN200
     FM251400 17005KT P6SM BKN070 BKN120
     FM251900 18009KT P6SM VCSH BKN060
     FM252100 20008KT P6SM OVC060 PROB30 2521/2524 VRB15G30KT 3SM
      -TSRA BR BKN050CB
     FM260000 22005KT 5SM BR VCSH SCT050 SCT250=

USA.gov is the U.S. government's official web portal to all federal, state and local government web resources and services.